Time;durP1;ratioP1;P1;durP2;ratioP2;P2;SDS_P1;SDS_P2;PMS_P1;PMS_P2;Temp;Humidity;BMP_temperature;BMP_pressure;BME280_temperature;BME280_humidity;BME280_pressure;Samples;Min_cycle;Max_cycle;Signal;HPM_P1;HPM_P2
2022/10/21 00:01:11;;;;;;;3.40;1.33;;;;;;;;;;5052444;28;20205;-78
2022/10/21 00:03:40;;;;;;;1.40;1.30;;;;;;;;;;5052724;28;20660;-78
2022/10/21 00:06:07;;;;;;;2.60;1.27;;;;;;;;;;5052226;28;20201;-78
2022/10/21 00:08:34;;;;;;;2.03;1.40;;;;;;;;;;5052158;28;20205;-78
2022/10/21 00:11:02;;;;;;;1.63;1.30;;;;;;;;;;5052631;28;20214;-78
2022/10/21 00:13:31;;;;;;;1.57;1.20;;;;;;;;;;5052272;28;20198;-78
2022/10/21 00:15:59;;;;;;;9.63;1.67;;;;;;;;;;5052121;28;20229;-78
2022/10/21 00:18:26;;;;;;;1.30;1.20;;;;;;;;;;5052218;28;20668;-78
2022/10/21 00:20:54;;;;;;;1.03;1.03;;;;;;;;;;5051738;28;20206;-78
2022/10/21 00:23:21;;;;;;;1.37;1.23;;;;;;;;;;5052382;28;20221;-78
2022/10/21 00:25:48;;;;;;;1.40;1.30;;;;;;;;;;5051752;28;20202;-78
2022/10/21 00:28:14;;;;;;;1.10;1.00;;;;;;;;;;5052289;28;20210;-78
2022/10/21 00:30:43;;;;;;;4.27;1.60;;;;;;;;;;5052137;28;20213;-78
2022/10/21 00:33:10;;;;;;;3.43;1.73;;;;;;;;;;5052197;28;20281;-78
2022/10/21 00:35:37;;;;;;;2.23;1.30;;;;;;;;;;5051370;28;20244;-78
2022/10/21 00:38:05;;;;;;;1.40;1.30;;;;;;;;;;5051730;28;20263;-78
2022/10/21 00:40:32;;;;;;;2.07;1.33;;;;;;;;;;5051727;28;20209;-78
2022/10/21 00:42:59;;;;;;;1.43;1.20;;;;;;;;;;5052045;28;20213;-78
2022/10/21 00:45:27;;;;;;;1.40;1.30;;;;;;;;;;5051511;28;20209;-78
2022/10/21 00:47:56;;;;;;;4.97;1.33;;;;;;;;;;5051143;28;20284;-78
2022/10/21 00:50:28;;;;;;;1.20;1.10;;;;;;;;;;5051438;28;20197;-78
2022/10/21 00:52:56;;;;;;;1.00;1.00;;;;;;;;;;5051953;28;20660;-78
2022/10/21 00:55:26;;;;;;;3.83;1.30;;;;;;;;;;5051513;28;20295;-78
2022/10/21 00:57:53;;;;;;;3.37;1.40;;;;;;;;;;5051915;28;20209;-78
2022/10/21 01:00:20;;;;;;;2.23;1.60;;;;;;;;;;5051305;28;20585;-78
2022/10/21 01:02:46;;;;;;;1.03;1.03;;;;;;;;;;5051370;28;20217;-78
2022/10/21 01:05:13;;;;;;;1.23;1.10;;;;;;;;;;5051477;28;20214;-78
2022/10/21 01:07:40;;;;;;;1.20;1.10;;;;;;;;;;5051114;28;20205;-79
2022/10/21 01:10:07;;;;;;;1.20;1.10;;;;;;;;;;5050924;28;20206;-78
2022/10/21 01:12:51;;;;;;;1.57;1.40;;;;;;;;;;5051441;28;20202;-78
2022/10/21 01:15:22;;;;;;;1.53;1.20;;;;;;;;;;5051075;28;20228;-78
2022/10/21 01:17:56;;;;;;;1.90;1.80;;;;;;;;;;5050934;28;20240;-78
2022/10/21 01:20:56;;;;;;;1.20;1.10;;;;;;;;;;5050891;28;20623;-78
2022/10/21 01:23:55;;;;;;;1.90;1.37;;;;;;;;;;5050869;28;20596;-79
2022/10/21 01:26:51;;;;;;;1.40;1.30;;;;;;;;;;5050555;28;20236;-78
2022/10/21 01:30:00;;;;;;;1.83;1.10;;;;;;;;;;5051011;28;20202;-78
2022/10/21 01:32:38;;;;;;;2.20;1.20;;;;;;;;;;5048355;28;20266;-78
2022/10/21 01:35:12;;;;;;;1.53;1.20;;;;;;;;;;5051049;28;20221;-78
2022/10/21 01:37:53;;;;;;;5.63;2.23;;;;;;;;;;5050599;28;20696;-79
2022/10/21 01:40:22;;;;;;;5.50;1.80;;;;;;;;;;5050662;28;20669;-78
2022/10/21 01:42:51;;;;;;;1.40;1.30;;;;;;;;;;5050108;28;20205;-79
2022/10/21 01:45:22;;;;;;;2.00;1.83;;;;;;;;;;5050693;28;20335;-78
2022/10/21 01:47:53;;;;;;;1.20;1.10;;;;;;;;;;5050503;28;20274;-78
2022/10/21 01:50:23;;;;;;;1.60;1.50;;;;;;;;;;5050124;28;20292;-78
2022/10/21 01:52:53;;;;;;;3.77;1.50;;;;;;;;;;5050696;28;20206;-78
2022/10/21 01:55:22;;;;;;;1.33;1.23;;;;;;;;;;5050485;28;20630;-78
2022/10/21 01:57:52;;;;;;;3.27;2.33;;;;;;;;;;5050790;28;20620;-78
2022/10/21 02:00:19;;;;;;;7.30;2.50;;;;;;;;;;5050510;28;20198;-78
2022/10/21 02:02:48;;;;;;;2.93;2.60;;;;;;;;;;5050358;28;20252;-78
2022/10/21 02:05:18;;;;;;;2.93;2.03;;;;;;;;;;5050614;28;20205;-78
2022/10/21 02:07:45;;;;;;;2.70;2.20;;;;;;;;;;5050681;28;20198;-78
2022/10/21 02:10:12;;;;;;;7.30;1.80;;;;;;;;;;5050105;28;20209;-78
2022/10/21 02:12:40;;;;;;;2.57;1.20;;;;;;;;;;5050742;28;20194;-78
2022/10/21 02:15:09;;;;;;;1.30;1.20;;;;;;;;;;5050437;28;20229;-79
2022/10/21 02:17:38;;;;;;;3.77;1.67;;;;;;;;;;5050180;28;20255;-78
2022/10/21 02:20:08;;;;;;;2.03;1.50;;;;;;;;;;5050170;28;20801;-78
2022/10/21 02:22:36;;;;;;;1.30;1.20;;;;;;;;;;5050436;28;20231;-79
2022/10/21 02:25:07;;;;;;;3.20;1.33;;;;;;;;;;5050507;28;20206;-78
2022/10/21 02:27:33;;;;;;;2.73;1.20;;;;;;;;;;5050114;28;20595;-78
2022/10/21 02:30:01;;;;;;;2.80;1.40;;;;;;;;;;5050024;28;21192;-78
2022/10/21 02:32:34;;;;;;;2.17;1.27;;;;;;;;;;5050356;28;20588;-79
2022/10/21 02:35:09;;;;;;;4.07;1.97;;;;;;;;;;5050379;28;20259;-78
2022/10/21 02:37:43;;;;;;;3.03;2.33;;;;;;;;;;5049853;28;20216;-79
2022/10/21 02:40:13;;;;;;;2.57;1.77;;;;;;;;;;5050016;28;20202;-78
2022/10/21 02:42:44;;;;;;;6.33;1.97;;;;;;;;;;5050023;28;20205;-79
2022/10/21 02:45:10;;;;;;;1.90;1.70;;;;;;;;;;5050218;28;20198;-78
2022/10/21 02:47:37;;;;;;;2.23;2.03;;;;;;;;;;5050129;28;20209;-78
2022/10/21 02:50:05;;;;;;;5.07;1.90;;;;;;;;;;5049712;28;20201;-78
2022/10/21 02:52:32;;;;;;;2.00;1.70;;;;;;;;;;5050104;28;20198;-78
2022/10/21 02:55:00;;;;;;;2.50;1.50;;;;;;;;;;5050246;28;20264;-78
2022/10/21 02:57:27;;;;;;;1.90;1.70;;;;;;;;;;5053579;28;20202;-78
2022/10/21 02:59:54;;;;;;;4.00;2.53;;;;;;;;;;5053641;28;20209;-78
2022/10/21 03:02:20;;;;;;;3.63;2.13;;;;;;;;;;5053912;28;20225;-78
2022/10/21 03:04:47;;;;;;;11.30;2.60;;;;;;;;;;5053808;28;20216;-78
2022/10/21 03:07:14;;;;;;;3.37;1.93;;;;;;;;;;5053310;28;20198;-78
2022/10/21 03:09:41;;;;;;;5.70;3.07;;;;;;;;;;5053157;28;20271;-78
2022/10/21 03:12:09;;;;;;;4.60;1.83;;;;;;;;;;5053812;28;20229;-78
2022/10/21 03:14:35;;;;;;;6.30;2.63;;;;;;;;;;5053589;28;20210;-78
2022/10/21 03:17:02;;;;;;;4.10;2.20;;;;;;;;;;5052905;28;20298;-79
2022/10/21 03:19:29;;;;;;;4.60;2.27;;;;;;;;;;5053517;28;20198;-78
2022/10/21 03:21:56;;;;;;;2.97;2.23;;;;;;;;;;5053488;28;20641;-78
2022/10/21 03:24:22;;;;;;;4.10;1.90;;;;;;;;;;5039385;28;20968;-78
2022/10/21 03:26:49;;;;;;;4.47;1.90;;;;;;;;;;5053216;28;20209;-78
2022/10/21 03:29:17;;;;;;;2.53;2.33;;;;;;;;;;5052787;28;20206;-78
2022/10/21 03:31:44;;;;;;;3.20;1.93;;;;;;;;;;5053180;28;20202;-78
2022/10/21 03:34:11;;;;;;;2.63;1.93;;;;;;;;;;5052875;28;20217;-78
2022/10/21 03:36:37;;;;;;;5.17;2.07;;;;;;;;;;5052670;28;20716;-78
2022/10/21 03:39:04;;;;;;;4.87;1.83;;;;;;;;;;5052507;28;20284;-80
2022/10/21 03:41:31;;;;;;;4.93;2.03;;;;;;;;;;5052918;28;20217;-79
2022/10/21 03:43:58;;;;;;;3.43;2.30;;;;;;;;;;5052937;28;20193;-80
2022/10/21 03:46:26;;;;;;;4.53;2.20;;;;;;;;;;5052359;28;20198;-78
2022/10/21 03:48:52;;;;;;;2.23;1.90;;;;;;;;;;5052608;28;20201;-79
2022/10/21 03:51:19;;;;;;;5.23;2.10;;;;;;;;;;5052389;28;20726;-79
2022/10/21 03:53:46;;;;;;;2.40;1.73;;;;;;;;;;5052847;28;20569;-79
2022/10/21 03:56:13;;;;;;;2.17;1.70;;;;;;;;;;5052260;28;20222;-78
2022/10/21 03:58:40;;;;;;;4.40;2.57;;;;;;;;;;5052457;28;20209;-79
2022/10/21 04:01:09;;;;;;;4.57;2.60;;;;;;;;;;5052347;28;20213;-79
2022/10/21 04:03:37;;;;;;;4.70;2.37;;;;;;;;;;5052564;28;20244;-79
2022/10/21 04:06:04;;;;;;;2.87;2.07;;;;;;;;;;5051561;28;20205;-79
2022/10/21 04:08:30;;;;;;;5.13;3.23;;;;;;;;;;5052179;28;20263;-79
2022/10/21 04:10:57;;;;;;;7.27;3.73;;;;;;;;;;5052468;28;20198;-78
2022/10/21 04:13:24;;;;;;;6.33;3.90;;;;;;;;;;5052416;28;20212;-79
2022/10/21 04:15:51;;;;;;;4.67;3.87;;;;;;;;;;5052025;28;20229;-79
2022/10/21 04:18:17;;;;;;;8.83;3.57;;;;;;;;;;5052522;28;20583;-79
2022/10/21 04:20:45;;;;;;;3.80;2.10;;;;;;;;;;5051432;28;20202;-79
2022/10/21 04:23:12;;;;;;;4.13;2.70;;;;;;;;;;5052273;28;20271;-78
2022/10/21 04:25:39;;;;;;;2.60;2.40;;;;;;;;;;5052112;28;20205;-79
2022/10/21 04:28:06;;;;;;;4.57;3.93;;;;;;;;;;5051808;28;20276;-79
2022/10/21 04:30:32;;;;;;;13.37;6.23;;;;;;;;;;5051869;28;20210;-78
2022/10/21 04:32:59;;;;;;;7.13;4.97;;;;;;;;;;5051760;28;20209;-80
2022/10/21 04:35:26;;;;;;;11.53;7.77;;;;;;;;;;5051515;28;20631;-79
2022/10/21 04:37:54;;;;;;;28.07;12.93;;;;;;;;;;5051861;28;20206;-79
2022/10/21 04:40:21;;;;;;;49.73;18.80;;;;;;;;;;5042068;28;20207;-79
2022/10/21 04:42:48;;;;;;;19.37;8.57;;;;;;;;;;5046841;28;20197;-80
2022/10/21 04:45:15;;;;;;;9.60;6.03;;;;;;;;;;5040010;28;20206;-79
2022/10/21 04:47:42;;;;;;;6.77;3.97;;;;;;;;;;5051137;28;20699;-80
2022/10/21 04:50:09;;;;;;;8.27;2.70;;;;;;;;;;5051432;28;20209;-79
2022/10/21 04:52:36;;;;;;;3.53;2.33;;;;;;;;;;5051915;28;20202;-79
2022/10/21 04:55:05;;;;;;;2.83;2.23;;;;;;;;;;5050757;28;20217;-80
2022/10/21 04:57:32;;;;;;;1.80;1.70;;;;;;;;;;5051464;28;20229;-79
2022/10/21 04:59:59;;;;;;;2.00;1.87;;;;;;;;;;5045493;28;20201;-77
2022/10/21 05:02:26;;;;;;;1.57;1.47;;;;;;;;;;5050910;28;20221;-76
2022/10/21 05:04:52;;;;;;;1.97;1.77;;;;;;;;;;5050581;28;20233;-77
2022/10/21 05:07:19;;;;;;;3.33;1.63;;;;;;;;;;5050664;28;20619;-77
2022/10/21 05:09:46;;;;;;;1.97;1.87;;;;;;;;;;5050110;28;20205;-77
2022/10/21 05:12:14;;;;;;;3.30;2.27;;;;;;;;;;5050715;28;20206;-77
2022/10/21 05:14:40;;;;;;;5.10;2.10;;;;;;;;;;5050255;28;20206;-77
2022/10/21 05:17:07;;;;;;;3.43;2.53;;;;;;;;;;5041450;28;20236;-76
2022/10/21 05:19:34;;;;;;;2.70;2.23;;;;;;;;;;5050579;28;20206;-78
2022/10/21 05:22:01;;;;;;;2.70;2.30;;;;;;;;;;5050606;28;20209;-77
2022/10/21 05:24:28;;;;;;;1.70;1.60;;;;;;;;;;5050231;28;20200;-77
2022/10/21 05:26:54;;;;;;;3.67;3.27;;;;;;;;;;5050531;28;20198;-78
2022/10/21 05:29:22;;;;;;;7.50;4.30;;;;;;;;;;5050190;28;20202;-77
2022/10/21 05:31:50;;;;;;;9.13;6.40;;;;;;;;;;5050537;28;20201;-77
2022/10/21 05:34:17;;;;;;;8.17;6.53;;;;;;;;;;5049914;28;20206;-77
2022/10/21 05:36:43;;;;;;;4.13;3.17;;;;;;;;;;5050498;28;20225;-78
2022/10/21 05:39:10;;;;;;;3.40;2.50;;;;;;;;;;5050162;28;20587;-77
2022/10/21 05:41:37;;;;;;;5.57;2.23;;;;;;;;;;5050116;28;20248;-77
2022/10/21 05:44:04;;;;;;;3.33;2.87;;;;;;;;;;5049663;28;21037;-77
2022/10/21 05:46:32;;;;;;;4.77;2.83;;;;;;;;;;5049872;28;20202;-78
2022/10/21 05:48:59;;;;;;;2.93;2.40;;;;;;;;;;5050261;28;20213;-78
2022/10/21 05:51:27;;;;;;;4.03;2.80;;;;;;;;;;5049775;28;20684;-79
2022/10/21 05:53:54;;;;;;;1.80;1.70;;;;;;;;;;5049143;28;20289;-78
2022/10/21 05:56:21;;;;;;;9.70;2.23;;;;;;;;;;5049233;28;20276;-78
2022/10/21 05:58:47;;;;;;;3.03;2.73;;;;;;;;;;5041405;28;20205;-78
2022/10/21 06:01:15;;;;;;;7.37;3.03;;;;;;;;;;5044897;28;20707;-78
2022/10/21 06:03:43;;;;;;;5.00;3.10;;;;;;;;;;5050266;28;20229;-77
2022/10/21 06:06:10;;;;;;;5.97;3.10;;;;;;;;;;5049745;28;20220;-77
2022/10/21 06:08:38;;;;;;;7.30;3.03;;;;;;;;;;5050320;28;20202;-77
2022/10/21 06:11:07;;;;;;;2.80;2.50;;;;;;;;;;5049888;28;20843;-77
2022/10/21 06:13:34;;;;;;;4.87;2.80;;;;;;;;;;5049421;28;20205;-78
2022/10/21 06:16:01;;;;;;;4.37;3.37;;;;;;;;;;5049444;28;20202;-77
2022/10/21 06:18:28;;;;;;;3.83;3.17;;;;;;;;;;5049980;28;20209;-77
2022/10/21 06:20:56;;;;;;;5.60;3.40;;;;;;;;;;5049893;28;20209;-77
2022/10/21 06:23:23;;;;;;;7.80;3.47;;;;;;;;;;5049400;28;20217;-77
2022/10/21 06:25:57;;;;;;;3.33;3.03;;;;;;;;;;5049376;28;20622;-77
2022/10/21 06:28:24;;;;;;;10.70;3.83;;;;;;;;;;5050031;28;20206;-78
2022/10/21 06:30:51;;;;;;;4.40;3.77;;;;;;;;;;5053338;28;20206;-78
2022/10/21 06:33:18;;;;;;;4.17;3.10;;;;;;;;;;5053936;28;20202;-78
2022/10/21 06:35:45;;;;;;;8.23;3.53;;;;;;;;;;5053701;28;20201;-78
2022/10/21 06:38:13;;;;;;;3.13;2.83;;;;;;;;;;5053546;28;20241;-80
2022/10/21 06:40:40;;;;;;;6.80;3.70;;;;;;;;;;5053489;28;20640;-80
2022/10/21 06:43:07;;;;;;;5.03;3.50;;;;;;;;;;5053423;28;20214;-77
2022/10/21 06:45:34;;;;;;;5.17;4.17;;;;;;;;;;5053176;28;20676;-77
2022/10/21 06:48:01;;;;;;;5.03;3.17;;;;;;;;;;5052313;28;20676;-77
2022/10/21 06:50:27;;;;;;;8.03;3.37;;;;;;;;;;5046848;28;20202;-77
2022/10/21 06:52:54;;;;;;;6.23;3.80;;;;;;;;;;5053446;28;20206;-77
2022/10/21 06:55:23;;;;;;;7.93;2.90;;;;;;;;;;5052706;28;20240;-78
2022/10/21 06:57:50;;;;;;;4.47;2.73;;;;;;;;;;5053108;28;20237;-78
2022/10/21 07:00:17;;;;;;;4.07;2.17;;;;;;;;;;5053058;28;20722;-77
2022/10/21 07:02:44;;;;;;;2.67;2.33;;;;;;;;;;5053350;28;20581;-77
2022/10/21 07:05:10;;;;;;;3.37;2.30;;;;;;;;;;5052794;28;20201;-77
2022/10/21 07:07:37;;;;;;;2.20;2.10;;;;;;;;;;5053468;28;20197;-78
2022/10/21 07:10:04;;;;;;;2.33;2.10;;;;;;;;;;5052829;28;20206;-77
2022/10/21 07:12:33;;;;;;;3.27;2.07;;;;;;;;;;5053288;28;20204;-78
2022/10/21 07:14:59;;;;;;;6.90;2.10;;;;;;;;;;5053051;28;20206;-77
2022/10/21 07:17:28;;;;;;;4.87;2.10;;;;;;;;;;5052115;28;20712;-78
2022/10/21 07:19:55;;;;;;;2.43;1.83;;;;;;;;;;5052272;28;20285;-77
2022/10/21 07:22:22;;;;;;;3.90;2.00;;;;;;;;;;5053129;28;20259;-77
2022/10/21 07:24:49;;;;;;;2.43;2.00;;;;;;;;;;5052444;28;20201;-77
2022/10/21 07:27:15;;;;;;;7.40;2.23;;;;;;;;;;5052919;28;20213;-77
2022/10/21 07:29:43;;;;;;;1.63;1.53;;;;;;;;;;5052695;28;20683;-77
2022/10/21 07:32:10;;;;;;;1.80;1.70;;;;;;;;;;5052080;28;20684;-77
2022/10/21 07:34:37;;;;;;;3.50;2.37;;;;;;;;;;5052835;28;20267;-76
2022/10/21 07:37:04;;;;;;;14.97;3.67;;;;;;;;;;5052268;28;20230;-77
2022/10/21 07:39:31;;;;;;;2.37;1.73;;;;;;;;;;5052289;28;20202;-78
2022/10/21 07:41:58;;;;;;;3.33;1.70;;;;;;;;;;5051552;28;20202;-78
2022/10/21 07:44:26;;;;;;;3.80;2.50;;;;;;;;;;5052088;28;20259;-78
2022/10/21 07:46:54;;;;;;;3.40;1.80;;;;;;;;;;5052529;28;20205;-78
2022/10/21 07:49:22;;;;;;;3.47;1.50;;;;;;;;;;5051970;28;20295;-77
2022/10/21 07:51:49;;;;;;;3.90;2.07;;;;;;;;;;5052243;28;20264;-77
2022/10/21 07:54:17;;;;;;;4.13;2.03;;;;;;;;;;5052655;28;20249;-77
2022/10/21 07:56:46;;;;;;;1.63;1.40;;;;;;;;;;5051932;28;20264;-77
2022/10/21 07:59:13;;;;;;;3.80;1.70;;;;;;;;;;5052236;28;20287;-77
2022/10/21 08:01:42;;;;;;;2.40;1.40;;;;;;;;;;5052087;28;20216;-78
2022/10/21 08:04:11;;;;;;;3.83;3.10;;;;;;;;;;5051874;28;20202;-77
2022/10/21 08:06:39;;;;;;;2.63;1.60;;;;;;;;;;5052348;28;20229;-78
2022/10/21 08:09:05;;;;;;;2.47;1.70;;;;;;;;;;5052016;28;20267;-77
2022/10/21 08:11:33;;;;;;;2.43;1.70;;;;;;;;;;5052110;28;20233;-77
2022/10/21 08:14:01;;;;;;;1.93;1.73;;;;;;;;;;5051373;28;20590;-77
2022/10/21 08:16:28;;;;;;;1.50;1.40;;;;;;;;;;5051798;28;20205;-77
2022/10/21 08:18:55;;;;;;;3.93;2.03;;;;;;;;;;5051805;28;20225;-77
2022/10/21 08:21:23;;;;;;;4.03;1.70;;;;;;;;;;5051730;28;20197;-77
2022/10/21 08:23:50;;;;;;;2.50;1.93;;;;;;;;;;5048298;28;20198;-80
2022/10/21 08:26:17;;;;;;;2.43;2.03;;;;;;;;;;5050718;28;20707;-79
2022/10/21 08:28:44;;;;;;;2.43;1.60;;;;;;;;;;5051092;28;20210;-78
2022/10/21 08:31:12;;;;;;;2.70;2.10;;;;;;;;;;5051195;28;20283;-78
2022/10/21 08:33:39;;;;;;;2.40;2.20;;;;;;;;;;5051304;28;20655;-79
2022/10/21 08:36:06;;;;;;;3.23;2.53;;;;;;;;;;5050628;28;20684;-79
2022/10/21 08:38:34;;;;;;;7.83;2.63;;;;;;;;;;5050934;28;20233;-79
2022/10/21 08:41:01;;;;;;;3.17;1.87;;;;;;;;;;5050729;28;20217;-79
2022/10/21 08:43:30;;;;;;;2.27;2.07;;;;;;;;;;5050670;28;20202;-78
2022/10/21 08:46:01;;;;;;;2.63;2.30;;;;;;;;;;5037154;28;20668;-78
2022/10/21 08:48:31;;;;;;;2.30;2.10;;;;;;;;;;5050838;28;20194;-78
2022/10/21 08:50:58;;;;;;;3.00;2.13;;;;;;;;;;5051177;28;20209;-78
2022/10/21 08:53:31;;;;;;;3.47;2.57;;;;;;;;;;5050358;28;20213;-78
2022/10/21 08:56:02;;;;;;;3.43;2.13;;;;;;;;;;5050635;28;20201;-78
2022/10/21 08:58:29;;;;;;;2.27;2.07;;;;;;;;;;5051250;28;20253;-78
2022/10/21 09:01:01;;;;;;;4.67;1.90;;;;;;;;;;5050732;28;20682;-78
2022/10/21 09:03:34;;;;;;;2.80;2.60;;;;;;;;;;5051143;28;20232;-78
2022/10/21 09:06:15;;;;;;;2.17;2.00;;;;;;;;;;5050476;28;20267;-78
2022/10/21 09:08:56;;;;;;;3.23;2.47;;;;;;;;;;5050685;28;20205;-78
2022/10/21 09:11:32;;;;;;;3.83;2.20;;;;;;;;;;5050887;28;20209;-79
2022/10/21 09:14:46;;;;;;;3.80;2.30;;;;;;;;;;5051011;28;20213;-78
2022/10/21 09:17:21;;;;;;;3.40;2.13;;;;;;;;;;5028864;28;20235;-79
2022/10/21 09:19:55;;;;;;;2.87;2.27;;;;;;;;;;5050191;28;20198;-78
2022/10/21 09:22:34;;;;;;;4.20;2.07;;;;;;;;;;5050787;28;20210;-79
2022/10/21 09:25:06;;;;;;;2.43;2.23;;;;;;;;;;5050169;28;20209;-79
2022/10/21 09:27:34;;;;;;;2.80;2.17;;;;;;;;;;5050372;28;20208;-78
2022/10/21 09:30:02;;;;;;;3.87;3.30;;;;;;;;;;5050610;28;20207;-78
2022/10/21 09:32:33;;;;;;;2.17;1.97;;;;;;;;;;5050799;28;20577;-79
2022/10/21 09:35:03;;;;;;;4.57;2.60;;;;;;;;;;5050365;28;20205;-79
2022/10/21 09:37:33;;;;;;;3.60;2.40;;;;;;;;;;5050269;28;20233;-79
2022/10/21 09:40:04;;;;;;;3.43;2.30;;;;;;;;;;5050629;28;20287;-79
2022/10/21 09:42:30;;;;;;;4.57;2.33;;;;;;;;;;5050247;28;20215;-78
2022/10/21 09:44:58;;;;;;;2.53;2.33;;;;;;;;;;5049930;28;20212;-79
2022/10/21 09:47:25;;;;;;;2.33;2.13;;;;;;;;;;5050413;28;20211;-78
2022/10/21 09:49:55;;;;;;;2.97;2.30;;;;;;;;;;5050009;28;20212;-79
2022/10/21 09:52:23;;;;;;;4.23;2.03;;;;;;;;;;5050516;28;20208;-78
2022/10/21 09:54:50;;;;;;;5.60;2.30;;;;;;;;;;5048218;28;20205;-77
2022/10/21 09:57:22;;;;;;;3.80;2.40;;;;;;;;;;5048313;28;20258;-77
2022/10/21 09:59:54;;;;;;;3.93;2.50;;;;;;;;;;5050239;28;20209;-75
2022/10/21 10:02:28;;;;;;;2.60;2.40;;;;;;;;;;5049540;28;20225;-75
2022/10/21 10:04:55;;;;;;;2.77;2.20;;;;;;;;;;5048872;28;20230;-76
2022/10/21 10:07:29;;;;;;;2.43;2.23;;;;;;;;;;5049585;28;20577;-77
2022/10/21 10:09:56;;;;;;;5.40;2.40;;;;;;;;;;5049955;28;20205;-76
2022/10/21 10:12:24;;;;;;;2.73;2.37;;;;;;;;;;5049433;28;20205;-76
2022/10/21 10:14:51;;;;;;;3.30;2.57;;;;;;;;;;5049491;28;20247;-76
2022/10/21 10:17:25;;;;;;;3.77;2.83;;;;;;;;;;5049911;28;20217;-76
2022/10/21 10:20:17;;;;;;;4.70;2.77;;;;;;;;;;5048819;28;20208;-77
2022/10/21 10:22:46;;;;;;;2.83;2.60;;;;;;;;;;5049771;28;20206;-76
2022/10/21 10:25:24;;;;;;;3.33;2.43;;;;;;;;;;5049294;28;20205;-77
2022/10/21 10:27:52;;;;;;;3.73;2.73;;;;;;;;;;5050315;28;20212;-77
2022/10/21 10:30:19;;;;;;;3.57;2.77;;;;;;;;;;5049845;28;20586;-76
2022/10/21 10:32:48;;;;;;;3.33;2.33;;;;;;;;;;5049619;28;20205;-77
2022/10/21 10:35:25;;;;;;;2.57;1.83;;;;;;;;;;5049443;28;20202;-76
2022/10/21 10:37:52;;;;;;;2.40;2.20;;;;;;;;;;5049128;28;20319;-78
2022/10/21 10:40:24;;;;;;;2.70;2.50;;;;;;;;;;5048760;28;20206;-79
2022/10/21 10:42:53;;;;;;;2.80;2.10;;;;;;;;;;5048929;28;20206;-79
2022/10/21 10:45:21;;;;;;;3.83;2.67;;;;;;;;;;5048534;28;20205;-79
2022/10/21 10:47:52;;;;;;;3.00;2.67;;;;;;;;;;5049039;28;20209;-79
2022/10/21 10:50:41;;;;;;;2.47;2.10;;;;;;;;;;5048895;28;20202;-78
2022/10/21 10:53:30;;;;;;;2.83;2.57;;;;;;;;;;5049133;28;20206;-79
2022/10/21 10:56:01;;;;;;;4.90;2.30;;;;;;;;;;5049524;28;20210;-79
2022/10/21 10:58:29;;;;;;;2.83;2.33;;;;;;;;;;5049368;28;20304;-79
2022/10/21 11:00:59;;;;;;;5.57;2.20;;;;;;;;;;5046673;28;20202;-79
2022/10/21 11:03:33;;;;;;;2.50;2.23;;;;;;;;;;5049392;28;20221;-79
2022/10/21 11:06:07;;;;;;;5.57;2.00;;;;;;;;;;5082009;28;20260;-78
2022/10/21 11:08:39;;;;;;;3.70;2.17;;;;;;;;;;5049173;28;20626;-79
2022/10/21 11:11:10;;;;;;;3.10;2.30;;;;;;;;;;5047911;28;20202;-79
2022/10/21 11:13:38;;;;;;;2.40;2.20;;;;;;;;;;5046688;28;20214;-77
2022/10/21 11:16:14;;;;;;;10.20;1.80;;;;;;;;;;5050047;28;20205;-76
2022/10/21 11:18:46;;;;;;;3.57;2.63;;;;;;;;;;5052540;28;20237;-76
2022/10/21 11:21:24;;;;;;;2.77;2.13;;;;;;;;;;5052668;28;20206;-76
2022/10/21 11:24:14;;;;;;;4.33;2.37;;;;;;;;;;5052854;28;20206;-76
2022/10/21 11:26:45;;;;;;;3.90;2.07;;;;;;;;;;5052680;28;20218;-76
2022/10/21 11:29:32;;;;;;;2.43;2.23;;;;;;;;;;5052297;28;20206;-76
2022/10/21 11:32:07;;;;;;;2.57;2.37;;;;;;;;;;5052380;28;20202;-76
2022/10/21 11:34:43;;;;;;;3.23;2.57;;;;;;;;;;5052889;28;20197;-76
2022/10/21 11:37:18;;;;;;;3.77;2.40;;;;;;;;;;5052658;28;20255;-77
2022/10/21 11:39:52;;;;;;;5.90;2.40;;;;;;;;;;5051953;28;20621;-77
2022/10/21 11:42:23;;;;;;;4.07;2.70;;;;;;;;;;5052590;28;20216;-77
2022/10/21 11:45:00;;;;;;;4.10;3.30;;;;;;;;;;5052355;28;20198;-76
2022/10/21 11:47:32;;;;;;;3.30;2.43;;;;;;;;;;5052044;28;20205;-77
2022/10/21 11:50:12;;;;;;;2.33;1.77;;;;;;;;;;5052362;28;20206;-77
2022/10/21 11:52:51;;;;;;;3.13;2.50;;;;;;;;;;5051954;28;20206;-77
2022/10/21 11:55:34;;;;;;;2.77;2.57;;;;;;;;;;5051955;28;20206;-76
2022/10/21 11:58:09;;;;;;;5.57;2.47;;;;;;;;;;5051778;28;20316;-77
2022/10/21 12:00:42;;;;;;;2.87;2.20;;;;;;;;;;5038250;28;20198;-75
2022/10/21 12:03:24;;;;;;;2.73;2.40;;;;;;;;;;5052194;28;20747;-76
2022/10/21 12:05:59;;;;;;;7.77;2.60;;;;;;;;;;5039513;28;20198;-76
2022/10/21 12:08:28;;;;;;;3.23;2.50;;;;;;;;;;5051222;28;20209;-76
2022/10/21 12:10:59;;;;;;;2.67;2.47;;;;;;;;;;5052182;28;20268;-76
2022/10/21 12:13:28;;;;;;;6.00;2.60;;;;;;;;;;5051492;28;20213;-76
2022/10/21 12:15:58;;;;;;;2.43;2.23;;;;;;;;;;5037604;28;21138;-77
2022/10/21 12:18:27;;;;;;;5.43;2.53;;;;;;;;;;5051565;28;20244;-77
2022/10/21 12:20:56;;;;;;;2.70;2.43;;;;;;;;;;5051399;28;20689;-77
2022/10/21 12:23:25;;;;;;;3.10;2.80;;;;;;;;;;5052100;28;20639;-77
2022/10/21 12:26:04;;;;;;;2.57;2.37;;;;;;;;;;5050882;28;20688;-78
2022/10/21 12:28:35;;;;;;;4.67;2.20;;;;;;;;;;5050796;28;21152;-77
2022/10/21 12:31:20;;;;;;;4.87;2.93;;;;;;;;;;5051377;28;20205;-77
2022/10/21 12:33:49;;;;;;;3.00;2.80;;;;;;;;;;5051509;28;20201;-76
2022/10/21 12:36:38;;;;;;;3.17;2.20;;;;;;;;;;5050982;28;20239;-77
2022/10/21 12:39:05;;;;;;;3.10;2.73;;;;;;;;;;5050941;28;20229;-76
2022/10/21 12:41:34;;;;;;;7.17;2.60;;;;;;;;;;5051605;28;20202;-76
2022/10/21 12:44:14;;;;;;;6.37;2.67;;;;;;;;;;5051167;28;20205;-76
2022/10/21 12:46:43;;;;;;;4.40;2.60;;;;;;;;;;5050913;28;20201;-77
2022/10/21 12:49:22;;;;;;;2.60;2.40;;;;;;;;;;5050900;28;20263;-77
2022/10/21 12:51:52;;;;;;;4.17;2.70;;;;;;;;;;5051553;28;20633;-77
2022/10/21 12:54:23;;;;;;;2.83;2.63;;;;;;;;;;5050887;28;20213;-77
2022/10/21 12:56:52;;;;;;;7.47;2.93;;;;;;;;;;5051201;28;20205;-76
2022/10/21 12:59:32;;;;;;;2.77;2.50;;;;;;;;;;5050271;28;20310;-77
2022/10/21 13:02:28;;;;;;;2.87;2.67;;;;;;;;;;5051125;28;20225;-77
2022/10/21 13:04:57;;;;;;;2.50;2.30;;;;;;;;;;5050788;28;20662;-77
2022/10/21 13:07:30;;;;;;;5.47;2.77;;;;;;;;;;5045430;28;20568;-77
2022/10/21 13:10:25;;;;;;;2.80;2.60;;;;;;;;;;5050103;28;20267;-76
2022/10/21 13:13:29;;;;;;;3.83;2.90;;;;;;;;;;5050531;28;20209;-76
2022/10/21 13:15:55;;;;;;;2.63;2.43;;;;;;;;;;5036511;28;20212;-77
2022/10/21 13:18:54;;;;;;;2.37;2.07;;;;;;;;;;5050512;28;20212;-77
2022/10/21 13:21:25;;;;;;;2.70;2.50;;;;;;;;;;5050698;28;20225;-77
2022/10/21 13:23:54;;;;;;;3.67;3.10;;;;;;;;;;5050205;28;20217;-77
2022/10/21 13:26:24;;;;;;;7.53;2.93;;;;;;;;;;5050128;28;20736;-76
2022/10/21 13:29:00;;;;;;;3.23;2.90;;;;;;;;;;5050574;28;20215;-77
2022/10/21 13:31:27;;;;;;;3.50;2.60;;;;;;;;;;5050480;28;20634;-76
2022/10/21 13:33:55;;;;;;;3.67;2.93;;;;;;;;;;5050125;28;20208;-77
2022/10/21 13:36:41;;;;;;;5.23;2.60;;;;;;;;;;5050522;28;20205;-78
2022/10/21 13:39:23;;;;;;;2.70;2.40;;;;;;;;;;5048977;28;20711;-77
2022/10/21 13:42:00;;;;;;;3.80;2.77;;;;;;;;;;5050169;28;20288;-77
2022/10/21 13:44:30;;;;;;;5.33;4.13;;;;;;;;;;5049905;28;20641;-76
2022/10/21 13:46:57;;;;;;;3.03;2.30;;;;;;;;;;5049969;28;20208;-76
2022/10/21 13:49:28;;;;;;;2.77;2.57;;;;;;;;;;5049614;28;20752;-77
2022/10/21 13:51:54;;;;;;;7.87;3.23;;;;;;;;;;5049652;28;20244;-76
2022/10/21 13:54:22;;;;;;;3.50;2.60;;;;;;;;;;5049901;28;20205;-76
2022/10/21 13:56:49;;;;;;;2.43;2.23;;;;;;;;;;5050050;28;20247;-77
2022/10/21 13:59:23;;;;;;;4.93;3.40;;;;;;;;;;5049692;28;20286;-77
2022/10/21 14:01:51;;;;;;;5.17;4.33;;;;;;;;;;5048952;28;20240;-77
2022/10/21 14:04:21;;;;;;;5.63;3.13;;;;;;;;;;5050281;28;20217;-76
2022/10/21 14:06:49;;;;;;;2.73;2.53;;;;;;;;;;5049353;28;20208;-76
2022/10/21 14:09:19;;;;;;;2.67;2.47;;;;;;;;;;5049542;28;20211;-76
2022/10/21 14:11:49;;;;;;;4.60;2.13;;;;;;;;;;5049606;28;20295;-77
2022/10/21 14:14:19;;;;;;;2.83;2.50;;;;;;;;;;5050169;28;20287;-77
2022/10/21 14:16:48;;;;;;;8.43;3.30;;;;;;;;;;5050503;28;20211;-76
2022/10/21 14:19:18;;;;;;;3.20;2.50;;;;;;;;;;5049368;28;20227;-77
2022/10/21 14:21:47;;;;;;;2.80;2.60;;;;;;;;;;5049892;28;20203;-76
2022/10/21 14:24:26;;;;;;;6.60;4.53;;;;;;;;;;5049498;28;20268;-77
2022/10/21 14:26:54;;;;;;;4.47;2.60;;;;;;;;;;5049529;28;20220;-76
2022/10/21 14:29:22;;;;;;;3.33;3.07;;;;;;;;;;5049819;28;20211;-76
2022/10/21 14:31:48;;;;;;;4.37;3.00;;;;;;;;;;5049976;28;20212;-76
2022/10/21 14:34:23;;;;;;;9.00;3.17;;;;;;;;;;5049382;28;20204;-75
2022/10/21 14:37:00;;;;;;;3.23;2.53;;;;;;;;;;5049823;28;20206;-76
2022/10/21 14:39:27;;;;;;;4.77;2.60;;;;;;;;;;5049178;28;20223;-76
2022/10/21 14:41:55;;;;;;;2.67;2.47;;;;;;;;;;5049719;28;20203;-76
2022/10/21 14:44:24;;;;;;;3.00;2.80;;;;;;;;;;5047090;28;20294;-81
2022/10/21 14:46:52;;;;;;;9.87;8.87;;;;;;;;;;5049846;28;20210;-77
2022/10/21 14:49:23;;;;;;;5.10;4.50;;;;;;;;;;5049541;28;20202;-78
2022/10/21 14:51:50;;;;;;;5.80;3.50;;;;;;;;;;5053197;28;20202;-77
2022/10/21 14:54:26;;;;;;;8.57;5.13;;;;;;;;;;5053316;28;20229;-77
2022/10/21 14:56:55;;;;;;;4.60;4.20;;;;;;;;;;5053776;28;20206;-78
2022/10/21 14:59:25;;;;;;;8.07;4.90;;;;;;;;;;5052936;28;20313;-77
2022/10/21 15:01:52;;;;;;;6.47;4.13;;;;;;;;;;5053412;28;20238;-77